Terminal Aerodrome Forecast
Issued by NWS

Home | Current Version | Previous Version | Text Only | Print | Product List | Glossary On
Versions: 1 2 3 4 5 6 7 8 9 10 11 12 13 14 15 16 17
000
FTAK31 PAJN 171100
TAFAPG
TAF
PAPG 171134Z 1712/1812 09004KT P6SM -RA FEW025 OVC050
     FM171800 08006KT P6SM -RA SCT025 OVC040
     FM180200 13005KT 5SM -RA BR BKN020 OVC030
     FM180500 23008KT 6SM -RA BR BKN020 OVC030
      AMD LTD TO CLD VIS AND WIND 1712/1715=

USA.gov is the U.S. government's official web portal to all federal, state and local government web resources and services.